createdAt,value
2023-05-07T00:00:20.332Z,98221.78
2023-05-07T00:02:47.709Z,98213.59
2023-05-07T00:05:15.958Z,98212.44
2023-05-07T00:07:42.867Z,98216.78
2023-05-07T00:10:11.438Z,98209.31
2023-05-07T00:12:38.324Z,98217.91
2023-05-07T00:15:05.554Z,98210.84
2023-05-07T00:17:32.433Z,98216.28
2023-05-07T00:19:59.135Z,98213.06
2023-05-07T00:22:26.101Z,98219.31
2023-05-07T00:24:52.791Z,98210.75
2023-05-07T00:27:19.516Z,98213.13
2023-05-07T00:29:46.145Z,98208.50
2023-05-07T00:32:12.882Z,98201.78
2023-05-07T00:34:40.740Z,98204.53
2023-05-07T00:37:08.603Z,98196.66
2023-05-07T00:39:35.619Z,98198.25
2023-05-07T00:44:41.729Z,98199.00
2023-05-07T00:47:08.811Z,98195.47
2023-05-07T00:49:53.632Z,98196.72
2023-05-07T00:52:22.905Z,98189.25
2023-05-07T00:54:49.672Z,98176.72
2023-05-07T00:57:16.911Z,98182.19
2023-05-07T00:59:43.687Z,98175.53
2023-05-07T01:02:10.302Z,98177.88
2023-05-07T01:04:37.896Z,98183.41
2023-05-07T01:07:06.612Z,98183.81
2023-05-07T01:09:33.346Z,98184.63
2023-05-07T01:12:00.580Z,98181.84
2023-05-07T01:14:27.412Z,98179.09
2023-05-07T01:16:54.713Z,98187.34
2023-05-07T01:19:21.596Z,98188.13
2023-05-07T01:21:49.929Z,98195.19
2023-05-07T01:24:17.032Z,98192.06
2023-05-07T01:26:45.791Z,98188.94
2023-05-07T01:29:12.648Z,98190.53
2023-05-07T01:31:41.885Z,98194.47
2023-05-07T01:34:10.877Z,98190.53
2023-05-07T01:36:39.856Z,98187.41
2023-05-07T01:39:07.524Z,98188.97
2023-05-07T01:41:34.341Z,98187.78
2023-05-07T01:44:02.539Z,98185.84
2023-05-07T01:46:30.028Z,98193.69
2023-05-07T01:48:56.921Z,98185.84
2023-05-07T01:51:23.981Z,98185.84
2023-05-07T01:53:51.998Z,98171.72
2023-05-07T01:56:19.712Z,98179.97
2023-05-07T01:58:49.762Z,98183.50
2023-05-07T02:01:16.437Z,98178.78
2023-05-07T02:03:43.304Z,98166.25
2023-05-07T02:06:10.127Z,98173.28
2023-05-07T02:08:37.007Z,98181.16
2023-05-07T02:11:03.857Z,98185.06
2023-05-07T02:13:32.832Z,98187.00
2023-05-07T02:15:59.535Z,98185.81
2023-05-07T02:18:26.308Z,98175.25
2023-05-07T02:20:52.988Z,98178.75
2023-05-07T02:25:57.358Z,98177.22
2023-05-07T02:28:24.031Z,98190.53
2023-05-07T02:30:50.680Z,98178.78
2023-05-07T02:35:54.677Z,98193.31
2023-05-07T02:38:21.332Z,98188.19
2023-05-07T02:40:48.095Z,98184.28
2023-05-07T02:43:14.965Z,98181.53
2023-05-07T02:45:41.731Z,98180.38
2023-05-07T02:48:08.432Z,98187.44
2023-05-07T02:50:35.130Z,98187.44
2023-05-07T02:53:01.789Z,98184.69
2023-05-07T02:55:28.445Z,98180.38
2023-05-07T02:57:55.077Z,98186.66
2023-05-07T03:00:22.110Z,98179.59
2023-05-07T03:02:48.848Z,98188.97
2023-05-07T03:05:15.597Z,98178.78
2023-05-07T03:07:46.383Z,98177.19
2023-05-07T03:10:13.245Z,98180.25
2023-05-07T03:12:40.630Z,98176.28
2023-05-07T03:15:07.909Z,98170.88
2023-05-07T03:17:34.565Z,98169.69
2023-05-07T03:20:01.244Z,98164.66
2023-05-07T03:22:27.955Z,98160.38
2023-05-07T03:24:54.694Z,98164.69
2023-05-07T03:27:21.284Z,98160.78
2023-05-07T03:29:47.967Z,98163.13
2023-05-07T03:32:14.619Z,98162.31
2023-05-07T03:34:41.522Z,98155.25
2023-05-07T03:37:08.227Z,98164.66
2023-05-07T03:39:34.864Z,98164.22
2023-05-07T03:42:02.250Z,98164.59
2023-05-07T03:44:28.972Z,98160.66
2023-05-07T03:46:56.551Z,98158.72
2023-05-07T03:49:23.244Z,98156.75
2023-05-07T03:51:49.906Z,98170.88
2023-05-07T03:54:16.598Z,98164.56
2023-05-07T03:56:43.303Z,98170.84
2023-05-07T03:59:09.896Z,98169.69
2023-05-07T04:01:37.000Z,98172.81
2023-05-07T04:04:04.501Z,98180.66
2023-05-07T04:06:32.225Z,98181.41
2023-05-07T04:08:59.046Z,98178.28
2023-05-07T04:11:26.123Z,98182.56
2023-05-07T04:13:52.778Z,98181.47
2023-05-07T04:16:19.560Z,98183.06
2023-05-07T04:18:46.451Z,98177.22
2023-05-07T04:21:17.428Z,98185.81
2023-05-07T04:23:44.351Z,98185.00
2023-05-07T04:26:11.358Z,98182.63
2023-05-07T04:28:38.018Z,98188.91
2023-05-07T04:31:04.937Z,98187.69
2023-05-07T04:33:31.679Z,98194.75
2023-05-07T04:35:58.701Z,98192.38
2023-05-07T04:38:25.367Z,98192.03
2023-05-07T04:40:52.556Z,98189.34
2023-05-07T04:45:53.501Z,98197.97
2023-05-07T04:48:21.633Z,98193.28
2023-05-07T04:50:49.402Z,98195.66
2023-05-07T04:53:16.200Z,98198.38
2023-05-07T04:55:42.960Z,98197.59
2023-05-07T04:58:10.303Z,98210.94
2023-05-07T05:00:36.901Z,98210.91
2023-05-07T05:03:03.724Z,98213.66
2023-05-07T05:05:30.376Z,98209.75
2023-05-07T05:07:57.027Z,98214.00
2023-05-07T05:10:24.807Z,98211.69
2023-05-07T05:12:51.650Z,98216.41
2023-05-07T05:15:18.473Z,98217.97
2023-05-07T05:17:45.681Z,98226.22
2023-05-07T05:20:13.084Z,98234.44
2023-05-07T05:22:40.255Z,98237.16
2023-05-07T05:25:07.137Z,98233.25
2023-05-07T05:27:33.790Z,98236.81
2023-05-07T05:32:34.656Z,98231.28
2023-05-07T05:35:01.634Z,98221.13
2023-05-07T05:37:28.440Z,98225.84
2023-05-07T05:42:33.379Z,98242.69
2023-05-07T05:44:59.979Z,98234.88
2023-05-07T05:47:26.722Z,98234.47
2023-05-07T05:49:53.337Z,98232.09
2023-05-07T05:52:20.043Z,98220.31
2023-05-07T05:54:46.732Z,98232.47
2023-05-07T05:57:13.429Z,98235.94
2023-05-07T05:59:40.126Z,98239.00
2023-05-07T06:02:07.836Z,98242.13
2023-05-07T06:04:34.554Z,98231.13
2023-05-07T06:07:01.253Z,98238.88
2023-05-07T06:09:27.872Z,98239.56
2023-05-07T06:11:54.570Z,98240.41
2023-05-07T06:16:59.796Z,98248.66
2023-05-07T06:19:27.874Z,98249.13
2023-05-07T06:21:54.791Z,98247.59
2023-05-07T06:24:21.413Z,98256.50
2023-05-07T06:26:48.066Z,98244.16
2023-05-07T06:29:14.991Z,98240.91
2023-05-07T06:31:41.980Z,98244.41
2023-05-07T06:34:09.052Z,98250.19
2023-05-07T06:36:36.240Z,98248.53
2023-05-07T06:39:03.173Z,98252.25
2023-05-07T06:41:29.790Z,98258.09
2023-05-07T06:43:56.424Z,98259.09
2023-05-07T06:46:23.151Z,98257.06
2023-05-07T06:48:49.841Z,98259.34
2023-05-07T06:51:16.488Z,98259.19
2023-05-07T06:53:43.119Z,98264.13
2023-05-07T06:56:09.796Z,98251.56
2023-05-07T06:58:36.491Z,98256.09
2023-05-07T07:01:03.191Z,98247.19
2023-05-07T07:03:29.959Z,98243.56
2023-05-07T07:05:56.601Z,98246.06
2023-05-07T07:08:23.849Z,98243.59
2023-05-07T07:10:50.629Z,98245.56
2023-05-07T07:13:17.341Z,98245.56
2023-05-07T07:15:44.819Z,98249.13
2023-05-07T07:18:11.997Z,98247.00
2023-05-07T07:20:38.708Z,98244.03
2023-05-07T07:23:05.484Z,98234.53
2023-05-07T07:25:32.286Z,98238.38
2023-05-07T07:27:58.978Z,98231.91
2023-05-07T07:30:27.333Z,98235.91
2023-05-07T07:32:54.758Z,98229.56
2023-05-07T07:35:21.500Z,98228.34
2023-05-07T07:37:51.045Z,98230.63
2023-05-07T07:40:17.839Z,98236.22
2023-05-07T07:45:16.302Z,98233.72
2023-05-07T07:47:43.295Z,98227.97
2023-05-07T07:50:10.732Z,98235.16
2023-05-07T07:52:37.646Z,98233.75
2023-05-07T07:55:05.764Z,98236.22
2023-05-07T07:57:32.400Z,98236.31
2023-05-07T07:59:59.038Z,98243.03
2023-05-07T08:02:26.524Z,98246.69
2023-05-07T08:04:53.197Z,98240.06
2023-05-07T08:07:21.835Z,98239.00
2023-05-07T08:09:50.853Z,98240.88
2023-05-07T08:12:17.537Z,98244.56
2023-05-07T08:14:44.302Z,98239.31
2023-05-07T08:17:11.612Z,98243.06
2023-05-07T08:19:38.390Z,98241.91
2023-05-07T08:22:06.821Z,98239.50
2023-05-07T08:24:33.567Z,98234.25
2023-05-07T08:27:00.220Z,98240.72
2023-05-07T08:29:27.015Z,98238.69
2023-05-07T08:31:53.758Z,98232.34
2023-05-07T08:36:58.657Z,98227.66
2023-05-07T08:39:25.312Z,98235.84
2023-05-07T08:41:57.544Z,98233.06
2023-05-07T08:44:28.541Z,98239.03
2023-05-07T08:46:57.888Z,98236.13
2023-05-07T08:49:24.617Z,98230.06
2023-05-07T08:51:51.460Z,98228.22
2023-05-07T08:54:19.061Z,98230.06
2023-05-07T08:56:45.782Z,98239.75
2023-05-07T08:59:12.450Z,98238.06
2023-05-07T09:01:39.975Z,98236.59
2023-05-07T09:04:08.119Z,98239.88
2023-05-07T09:06:35.899Z,98237.13
2023-05-07T09:09:06.516Z,98229.75
2023-05-07T09:11:33.321Z,98227.91
2023-05-07T09:14:02.612Z,98231.78
2023-05-07T09:16:31.523Z,98226.56
2023-05-07T09:19:00.390Z,98233.69
2023-05-07T09:21:27.283Z,98228.91
2023-05-07T09:23:55.814Z,98221.13
2023-05-07T09:26:23.656Z,98222.81
2023-05-07T09:28:50.418Z,98218.19
2023-05-07T09:31:19.423Z,98208.25
2023-05-07T09:33:47.765Z,98218.50
2023-05-07T09:36:15.213Z,98214.63
2023-05-07T09:38:42.841Z,98210.06
2023-05-07T09:41:14.003Z,98213.13
2023-05-07T09:43:42.043Z,98213.78
2023-05-07T09:46:16.538Z,98210.69
2023-05-07T09:48:45.072Z,98210.38
2023-05-07T09:51:26.986Z,98206.22
2023-05-07T09:56:26.734Z,98204.38
2023-05-07T09:58:56.269Z,98203.22
2023-05-07T10:01:23.746Z,98209.88
2023-05-07T10:03:51.687Z,98197.06
2023-05-07T10:06:18.581Z,98205.56
2023-05-07T10:08:45.789Z,98196.94
2023-05-07T10:11:12.995Z,98197.78
2023-05-07T10:13:39.650Z,98203.03
2023-05-07T10:16:06.616Z,98187.66
2023-05-07T10:18:34.305Z,98190.06
2023-05-07T10:21:09.569Z,98193.09
2023-05-07T10:23:36.912Z,98188.19
2023-05-07T10:26:07.226Z,98185.47
2023-05-07T10:28:38.500Z,98176.53
2023-05-07T10:31:31.551Z,98177.47
2023-05-07T10:33:59.825Z,98177.41
2023-05-07T10:36:27.553Z,98178.75
2023-05-07T10:38:54.534Z,98182.63
2023-05-07T10:41:22.388Z,98172.59
2023-05-07T10:43:49.119Z,98180.63
2023-05-07T10:46:18.866Z,98175.50
2023-05-07T10:49:07.497Z,98180.09
2023-05-07T10:51:34.805Z,98172.72
2023-05-07T10:54:13.692Z,98172.69
2023-05-07T10:56:44.215Z,98170.25
2023-05-07T10:59:24.768Z,98176.75
2023-05-07T11:01:54.486Z,98162.50
2023-05-07T11:04:27.487Z,98164.06
2023-05-07T11:07:09.717Z,98161.63
2023-05-07T11:09:54.867Z,98165.22
2023-05-07T11:12:39.937Z,98162.94
2023-05-07T11:15:17.168Z,98168.06
2023-05-07T11:17:57.844Z,98164.38
2023-05-07T11:20:56.329Z,98156.34
2023-05-07T11:23:34.893Z,98151.88
2023-05-07T11:26:01.820Z,98165.34
2023-05-07T11:28:32.513Z,98158.06
2023-05-07T11:30:59.325Z,98151.72
2023-05-07T11:33:29.134Z,98157.38
2023-05-07T11:35:56.587Z,98155.66
2023-05-07T11:38:23.439Z,98149.34
2023-05-07T11:41:01.856Z,98153.81
2023-05-07T11:43:28.819Z,98145.47
2023-05-07T11:45:55.587Z,98146.09
2023-05-07T11:48:23.604Z,98139.56
2023-05-07T11:50:59.487Z,98140.31
2023-05-07T11:53:28.097Z,98137.63
2023-05-07T11:55:56.837Z,98150.13
2023-05-07T11:58:25.038Z,98140.38
2023-05-07T12:00:53.003Z,98142.56
2023-05-07T12:03:20.157Z,98150.38
2023-05-07T12:05:47.915Z,98152.41
2023-05-07T12:08:17.914Z,98160.81
2023-05-07T12:10:45.920Z,98160.50
2023-05-07T12:13:17.209Z,98167.31
2023-05-07T12:15:44.611Z,98157.38
2023-05-07T12:18:14.490Z,98160.75
2023-05-07T12:23:13.893Z,98153.25
2023-05-07T12:25:43.252Z,98160.59
2023-05-07T12:28:14.384Z,98153.75
2023-05-07T12:30:41.947Z,98143.25
2023-05-07T12:33:08.855Z,98153.16
2023-05-07T12:35:40.827Z,98157.91
2023-05-07T12:38:15.224Z,98153.19
2023-05-07T12:40:54.893Z,98163.56
2023-05-07T12:43:25.259Z,98167.72
2023-05-07T12:45:54.397Z,98172.63
2023-05-07T12:48:22.309Z,98178.63
2023-05-07T12:50:52.758Z,98179.84
2023-05-07T12:53:22.738Z,98186.91
2023-05-07T12:55:51.537Z,98190.94
2023-05-07T12:58:20.770Z,98181.88
2023-05-07T13:00:50.134Z,98182.53
2023-05-07T13:03:25.410Z,98177.03
2023-05-07T13:05:52.846Z,98180.94
2023-05-07T13:08:31.141Z,98181.28
2023-05-07T13:10:59.730Z,98189.97
2023-05-07T13:13:26.559Z,98208.44
2023-05-07T13:15:53.337Z,98212.91
2023-05-07T13:18:20.178Z,98222.13
2023-05-07T13:20:46.978Z,98226.69
2023-05-07T13:23:13.750Z,98251.44
2023-05-07T13:25:40.484Z,98255.59
2023-05-07T13:28:11.318Z,98252.75
2023-05-07T13:30:38.460Z,98248.78
2023-05-07T13:33:05.254Z,98247.94
2023-05-07T13:35:32.010Z,98242.19
2023-05-07T13:40:32.531Z,98225.47
2023-05-07T13:43:01.037Z,98218.53
2023-05-07T13:47:59.576Z,98210.09
2023-05-07T13:50:28.128Z,98213.44
2023-05-07T13:52:54.892Z,98210.13
2023-05-07T13:55:24.155Z,98213.63
2023-05-07T13:57:58.145Z,98198.03
2023-05-07T14:00:26.134Z,98193.19
2023-05-07T14:02:53.302Z,98185.53
2023-05-07T14:05:20.595Z,98174.91
2023-05-07T14:07:48.236Z,98155.75
2023-05-07T14:10:15.432Z,98177.84
2023-05-07T14:12:42.485Z,98206.81
2023-05-07T14:15:09.448Z,98220.41
2023-05-07T14:17:36.339Z,98226.91
2023-05-07T14:20:03.137Z,98231.38
2023-05-07T14:22:29.794Z,98272.09
2023-05-07T14:25:06.402Z,98279.56
2023-05-07T14:27:33.992Z,98277.09
2023-05-07T14:30:00.807Z,98288.00
2023-05-07T14:32:27.455Z,98290.31
2023-05-07T14:34:54.154Z,98291.44
2023-05-07T14:37:21.199Z,98289.03
2023-05-07T14:39:50.763Z,98289.06
2023-05-07T14:42:18.013Z,98285.63
2023-05-07T14:44:46.671Z,98290.53
2023-05-07T14:47:14.482Z,98291.06
2023-05-07T14:49:42.142Z,98291.25
2023-05-07T14:52:11.321Z,98278.38
2023-05-07T14:54:39.288Z,98280.31
2023-05-07T14:57:08.049Z,98286.19
2023-05-07T14:59:34.873Z,98292.69
2023-05-07T15:02:03.809Z,98291.69
2023-05-07T15:04:32.405Z,98296.31
2023-05-07T15:06:59.053Z,98291.13
2023-05-07T15:09:25.786Z,98293.50
2023-05-07T15:11:52.588Z,98288.44
2023-05-07T15:14:19.472Z,98281.63
2023-05-07T15:16:46.884Z,98276.78
2023-05-07T15:19:16.018Z,98273.66
2023-05-07T15:21:42.780Z,98269.34
2023-05-07T15:24:10.205Z,98266.69
2023-05-07T15:26:37.290Z,98265.53
2023-05-07T15:29:09.263Z,98267.47
2023-05-07T15:31:35.954Z,98266.31
2023-05-07T15:34:02.772Z,98288.16
2023-05-07T15:36:29.588Z,98284.91
2023-05-07T15:38:56.276Z,98287.91
2023-05-07T15:41:22.967Z,98284.69
2023-05-07T15:43:53.106Z,98286.38
2023-05-07T15:46:25.637Z,98283.88
2023-05-07T15:48:53.739Z,98287.28
2023-05-07T15:51:21.331Z,98286.84
2023-05-07T15:53:48.477Z,98286.38
2023-05-07T15:56:15.423Z,98288.38
2023-05-07T15:58:42.128Z,98293.25
2023-05-07T16:01:08.878Z,98303.72
2023-05-07T16:03:35.817Z,98302.38
2023-05-07T16:08:34.509Z,98307.78
2023-05-07T16:11:01.317Z,98315.28
2023-05-07T16:13:28.017Z,98314.56
2023-05-07T16:18:29.849Z,98325.47
2023-05-07T16:20:56.618Z,98331.25
2023-05-07T16:23:23.274Z,98335.03
2023-05-07T16:25:50.201Z,98337.78
2023-05-07T16:28:17.117Z,98337.34
2023-05-07T16:30:44.353Z,98348.31
2023-05-07T16:33:11.156Z,98344.41
2023-05-07T16:35:37.856Z,98348.84
2023-05-07T16:38:10.178Z,98351.56
2023-05-07T16:40:40.240Z,98352.03
2023-05-07T16:43:06.986Z,98355.41
2023-05-07T16:45:34.009Z,98360.19
2023-05-07T16:48:00.726Z,98360.31
2023-05-07T16:50:27.550Z,98357.38
2023-05-07T16:52:54.205Z,98353.13
2023-05-07T16:57:58.320Z,98355.44
2023-05-07T17:00:27.837Z,98356.91
2023-05-07T17:02:58.707Z,98353.91
2023-05-07T17:05:25.431Z,98357.69
2023-05-07T17:07:52.417Z,98359.00
2023-05-07T17:10:20.555Z,98356.75
2023-05-07T17:12:47.167Z,98359.97
2023-05-07T17:15:14.191Z,98359.28
2023-05-07T17:17:42.127Z,98356.03
2023-05-07T17:20:09.439Z,98350.09
2023-05-07T17:22:36.306Z,98346.28
2023-05-07T17:25:04.486Z,98343.66
2023-05-07T17:27:31.903Z,98339.00
2023-05-07T17:29:58.529Z,98346.50
2023-05-07T17:32:25.709Z,98349.22
2023-05-07T17:34:52.570Z,98349.59
2023-05-07T17:37:19.459Z,98361.03
2023-05-07T17:39:46.522Z,98365.75
2023-05-07T17:42:13.124Z,98367.38
2023-05-07T17:44:40.133Z,98368.28
2023-05-07T17:47:07.614Z,98373.78
2023-05-07T17:49:34.355Z,98375.72
2023-05-07T17:52:01.046Z,98387.59
2023-05-07T17:54:28.187Z,98378.06
2023-05-07T17:56:54.882Z,98391.09
2023-05-07T17:59:21.912Z,98397.44
2023-05-07T18:01:48.648Z,98398.91
2023-05-07T18:04:15.531Z,98404.81
2023-05-07T18:06:42.503Z,98406.47
2023-05-07T18:09:09.382Z,98398.59
2023-05-07T18:11:37.474Z,98409.59
2023-05-07T18:14:04.213Z,98393.94
2023-05-07T18:16:31.079Z,98395.13
2023-05-07T18:18:57.787Z,98402.59
2023-05-07T18:21:24.452Z,98401.78
2023-05-07T18:23:51.679Z,98416.72
2023-05-07T18:26:18.357Z,98425.78
2023-05-07T18:28:46.252Z,98436.81
2023-05-07T18:31:13.031Z,98432.47
2023-05-07T18:33:39.730Z,98433.56
2023-05-07T18:36:06.921Z,98434.81
2023-05-07T18:38:34.262Z,98445.09
2023-05-07T18:41:05.452Z,98441.19
2023-05-07T18:43:34.014Z,98441.91
2023-05-07T18:48:32.536Z,98452.09
2023-05-07T18:50:59.236Z,98441.91
2023-05-07T18:53:25.875Z,98445.78
2023-05-07T18:55:53.116Z,98437.19
2023-05-07T18:58:20.370Z,98446.69
2023-05-07T19:00:48.138Z,98448.28
2023-05-07T19:05:47.306Z,98456.91
2023-05-07T19:08:14.087Z,98451.41
2023-05-07T19:10:40.715Z,98458.44
2023-05-07T19:13:07.462Z,98462.72
2023-05-07T19:15:34.435Z,98450.06
2023-05-07T19:18:01.576Z,98454.69
2023-05-07T19:20:29.509Z,98457.44
2023-05-07T19:25:33.370Z,98470.78
2023-05-07T19:27:59.962Z,98480.75
2023-05-07T19:30:26.780Z,98472.09
2023-05-07T19:32:53.458Z,98476.88
2023-05-07T19:35:20.185Z,98486.44
2023-05-07T19:37:46.878Z,98493.94
2023-05-07T19:40:14.849Z,98500.22
2023-05-07T19:42:41.768Z,98500.59
2023-05-07T19:45:08.871Z,98507.72
2023-05-07T19:47:35.588Z,98511.75
2023-05-07T19:50:02.231Z,98511.31
2023-05-07T19:52:28.939Z,98518.03
2023-05-07T19:54:56.150Z,98522.75
2023-05-07T19:57:22.882Z,98527.88
2023-05-07T19:59:49.555Z,98529.41
2023-05-07T20:02:16.647Z,98540.81
2023-05-07T20:04:43.347Z,98539.28
2023-05-07T20:09:48.376Z,98545.69
2023-05-07T20:12:15.242Z,98543.31
2023-05-07T20:14:41.898Z,98550.75
2023-05-07T20:17:08.561Z,98554.72
2023-05-07T20:19:35.257Z,98555.53
2023-05-07T20:22:01.887Z,98567.34
2023-05-07T20:24:28.520Z,98560.66
2023-05-07T20:26:55.150Z,98563.81
2023-05-07T20:29:23.254Z,98559.09
2023-05-07T20:31:49.923Z,98563.00
2023-05-07T20:34:16.690Z,98561.44
2023-05-07T20:36:43.329Z,98557.50
2023-05-07T20:39:13.361Z,98561.44
2023-05-07T20:41:39.971Z,98560.25
2023-05-07T20:44:06.865Z,98562.19
2023-05-07T20:46:34.553Z,98568.50
2023-05-07T20:49:01.201Z,98563.38
2023-05-07T20:51:27.890Z,98563.03
2023-05-07T20:53:54.510Z,98573.63
2023-05-07T20:56:22.407Z,98566.56
2023-05-07T20:58:49.254Z,98568.16
2023-05-07T21:01:16.113Z,98573.69
2023-05-07T21:03:42.794Z,98577.59
2023-05-07T21:06:09.421Z,98576.03
2023-05-07T21:08:36.036Z,98576.03
2023-05-07T21:11:02.888Z,98581.09
2023-05-07T21:13:29.634Z,98583.06
2023-05-07T21:15:56.348Z,98588.59
2023-05-07T21:18:23.655Z,98582.69
2023-05-07T21:20:50.276Z,98579.16
2023-05-07T21:23:16.917Z,98577.56
2023-05-07T21:25:47.384Z,98573.28
2023-05-07T21:28:14.418Z,98582.34
2023-05-07T21:30:41.185Z,98580.75
2023-05-07T21:33:08.799Z,98578.38
2023-05-07T21:38:09.071Z,98580.78
2023-05-07T21:40:35.798Z,98572.94
2023-05-07T21:43:02.432Z,98573.31
2023-05-07T21:45:29.157Z,98572.91
2023-05-07T21:47:56.339Z,98580.00
2023-05-07T21:50:23.369Z,98576.81
2023-05-07T21:52:50.058Z,98579.19
2023-05-07T21:55:19.911Z,98577.66
2023-05-07T21:58:01.454Z,98583.19
2023-05-07T22:00:32.186Z,98586.28
2023-05-07T22:02:59.169Z,98583.91
2023-05-07T22:05:25.876Z,98577.25
2023-05-07T22:07:52.487Z,98583.56
2023-05-07T22:10:23.089Z,98584.31
2023-05-07T22:12:50.164Z,98584.34
2023-05-07T22:15:16.979Z,98585.50
2023-05-07T22:17:43.714Z,98582.38
2023-05-07T22:20:11.160Z,98584.72
2023-05-07T22:22:53.411Z,98588.66
2023-05-07T22:25:21.409Z,98591.81
2023-05-07T22:27:48.504Z,98587.88
2023-05-07T22:30:15.234Z,98587.88
2023-05-07T22:32:42.867Z,98586.31
2023-05-07T22:35:10.246Z,98592.63
2023-05-07T22:37:37.072Z,98587.88
2023-05-07T22:40:04.527Z,98591.03
2023-05-07T22:42:31.245Z,98590.66
2023-05-07T22:44:58.108Z,98585.53
2023-05-07T22:47:25.122Z,98590.63
2023-05-07T22:49:51.777Z,98587.88
2023-05-07T22:52:18.470Z,98589.06
2023-05-07T22:54:45.135Z,98582.38
2023-05-07T22:57:11.786Z,98576.06
2023-05-07T22:59:38.533Z,98580.38
2023-05-07T23:02:05.441Z,98582.00
2023-05-07T23:04:32.199Z,98584.34
2023-05-07T23:06:58.896Z,98577.25
2023-05-07T23:09:25.821Z,98576.06
2023-05-07T23:11:52.446Z,98584.72
2023-05-07T23:14:19.132Z,98580.81
2023-05-07T23:16:45.903Z,98591.41
2023-05-07T23:19:13.125Z,98586.31
2023-05-07T23:21:39.767Z,98587.50
2023-05-07T23:24:06.811Z,98589.47
2023-05-07T23:42:52.256Z,98578.44
2023-05-07T23:45:25.028Z,98572.16
2023-05-07T23:47:57.836Z,98570.56
2023-05-07T23:53:02.604Z,98578.03
2023-05-07T23:55:29.218Z,98572.94
2023-05-07T23:57:55.923Z,98568.22
